createdAt,value
2019-05-09T00:02:04.651Z,99583.78
2019-05-09T00:04:34.068Z,99579.62
2019-05-09T00:07:03.728Z,99578.20
2019-05-09T00:09:33.646Z,99580.66
2019-05-09T00:12:03.874Z,99582.08
2019-05-09T00:14:34.246Z,99572.56
2019-05-09T00:17:03.981Z,99576.94
2019-05-09T00:19:33.537Z,99581.52
2019-05-09T00:22:03.398Z,99594.60
2019-05-09T00:24:33.282Z,99592.39
2019-05-09T00:27:03.886Z,99587.03
2019-05-09T00:29:37.570Z,99589.96
2019-05-09T00:32:13.581Z,99587.13
2019-05-09T00:35:00.672Z,99583.11
2019-05-09T00:37:47.762Z,99586.98
2019-05-09T00:40:17.189Z,99589.00
2019-05-09T00:42:46.594Z,99597.19
2019-05-09T00:48:04.504Z,99595.15
2019-05-09T00:50:34.272Z,99600.66
2019-05-09T00:53:03.746Z,99599.71
2019-05-09T00:55:34.709Z,99601.78
2019-05-09T00:58:05.629Z,99602.91
2019-05-09T01:00:39.329Z,99606.88
2019-05-09T01:03:08.729Z,99599.88
2019-05-09T01:05:38.175Z,99602.66
2019-05-09T01:08:07.730Z,99608.06
2019-05-09T01:10:37.181Z,99613.94
2019-05-09T01:13:06.649Z,99608.59
2019-05-09T01:15:36.151Z,99608.41
2019-05-09T01:18:05.553Z,99606.41
2019-05-09T01:20:35.039Z,99606.82
2019-05-09T01:23:04.583Z,99605.39
2019-05-09T01:25:34.169Z,99611.77
2019-05-09T01:28:03.606Z,99607.45
2019-05-09T01:30:33.679Z,99608.27
2019-05-09T01:33:10.447Z,99611.06
2019-05-09T01:35:40.050Z,99614.90
2019-05-09T01:38:09.579Z,99609.85
2019-05-09T01:40:39.472Z,99612.36
2019-05-09T01:43:10.379Z,99611.70
2019-05-09T01:45:39.880Z,99613.06
2019-05-09T01:48:09.482Z,99613.91
2019-05-09T01:50:38.920Z,99612.98
2019-05-09T01:53:08.560Z,99618.96
2019-05-09T01:55:55.813Z,99616.30
2019-05-09T01:58:25.528Z,99618.26
2019-05-09T02:00:56.757Z,99619.80
2019-05-09T02:03:26.683Z,99615.73
2019-05-09T02:05:56.272Z,99620.46
2019-05-09T02:08:27.372Z,99619.38
2019-05-09T02:10:57.249Z,99617.73
2019-05-09T02:13:26.696Z,99617.44
2019-05-09T02:16:14.265Z,99619.32
2019-05-09T02:18:48.574Z,99608.22
2019-05-09T02:21:18.105Z,99615.72
2019-05-09T02:23:47.549Z,99615.02
2019-05-09T02:26:16.980Z,99608.81
2019-05-09T02:28:48.057Z,99609.27
2019-05-09T02:31:17.491Z,99616.82
2019-05-09T02:33:47.068Z,99612.03
2019-05-09T02:36:18.988Z,99612.36
2019-05-09T02:38:48.719Z,99613.72
2019-05-09T02:41:19.648Z,99617.26
2019-05-09T02:43:49.933Z,99615.56
2019-05-09T02:46:33.961Z,99613.75
2019-05-09T02:49:03.520Z,99617.80
2019-05-09T02:51:33.069Z,99620.38
2019-05-09T02:54:04.321Z,99611.23
2019-05-09T02:56:33.778Z,99612.89
2019-05-09T02:59:23.103Z,99616.77
2019-05-09T03:01:54.439Z,99617.12
2019-05-09T03:04:23.936Z,99614.26
2019-05-09T03:06:53.526Z,99611.68
2019-05-09T03:09:24.405Z,99602.39
2019-05-09T03:11:53.908Z,99609.36
2019-05-09T03:14:23.407Z,99602.51
2019-05-09T03:16:52.831Z,99603.55
2019-05-09T03:19:22.627Z,99603.91
2019-05-09T03:21:58.509Z,99603.98
2019-05-09T03:24:28.839Z,99607.02
2019-05-09T03:27:03.130Z,99607.20
2019-05-09T03:29:39.614Z,99605.80
2019-05-09T03:32:09.410Z,99606.53
2019-05-09T03:34:39.109Z,99607.82
2019-05-09T03:37:08.821Z,99610.99
2019-05-09T03:39:38.251Z,99609.55
2019-05-09T03:42:08.000Z,99611.09
2019-05-09T03:44:38.536Z,99604.97
2019-05-09T03:47:12.681Z,99610.31
2019-05-09T03:49:42.124Z,99606.70
2019-05-09T03:52:11.994Z,99603.81
2019-05-09T03:54:41.427Z,99599.94
2019-05-09T03:57:12.471Z,99609.80
2019-05-09T03:59:42.083Z,99600.11
2019-05-09T04:02:11.478Z,99603.00
2019-05-09T04:04:40.905Z,99603.44
2019-05-09T04:07:10.328Z,99599.61
2019-05-09T04:09:39.937Z,99601.14
2019-05-09T04:12:09.464Z,99600.33
2019-05-09T04:14:39.842Z,99596.08
2019-05-09T04:17:11.745Z,99602.63
2019-05-09T04:19:41.149Z,99602.97
2019-05-09T04:22:10.648Z,99599.23
2019-05-09T04:24:40.256Z,99601.73
2019-05-09T04:27:23.108Z,99605.00
2019-05-09T04:29:52.537Z,99601.36
2019-05-09T04:32:22.338Z,99606.30
2019-05-09T04:34:51.785Z,99612.36
2019-05-09T04:37:21.213Z,99613.70
2019-05-09T04:39:54.082Z,99614.70
2019-05-09T04:42:22.774Z,99619.35
2019-05-09T04:45:03.374Z,99614.55
2019-05-09T04:47:33.738Z,99614.67
2019-05-09T04:50:02.324Z,99615.92
2019-05-09T04:52:31.762Z,99611.62
2019-05-09T04:55:01.221Z,99621.28
2019-05-09T04:57:30.658Z,99618.80
2019-05-09T05:00:00.067Z,99617.20
2019-05-09T05:02:31.134Z,99616.45
2019-05-09T05:05:00.533Z,99617.02
2019-05-09T05:07:30.115Z,99615.81
2019-05-09T05:09:59.512Z,99624.40
2019-05-09T05:12:28.932Z,99622.25
2019-05-09T05:14:58.528Z,99628.09
2019-05-09T05:17:30.620Z,99635.22
2019-05-09T05:20:00.234Z,99631.31
2019-05-09T05:22:38.694Z,99633.12
2019-05-09T05:25:09.298Z,99630.92
2019-05-09T05:27:38.892Z,99632.22
2019-05-09T05:30:08.970Z,99634.72
2019-05-09T05:32:42.767Z,99633.56
2019-05-09T05:35:29.279Z,99641.60
2019-05-09T05:37:58.780Z,99637.97
2019-05-09T05:40:33.255Z,99645.52
2019-05-09T05:42:59.599Z,99649.58
2019-05-09T05:45:30.648Z,99649.31
2019-05-09T05:48:04.428Z,99649.11
2019-05-09T05:50:34.268Z,99647.84
2019-05-09T05:53:03.717Z,99664.55
2019-05-09T05:55:33.124Z,99657.56
2019-05-09T05:58:02.606Z,99654.56
2019-05-09T06:00:32.040Z,99660.84
2019-05-09T06:03:01.480Z,99659.62
2019-05-09T06:05:30.893Z,99660.77
2019-05-09T06:08:00.399Z,99660.41
2019-05-09T06:10:29.883Z,99662.05
2019-05-09T06:12:59.310Z,99666.25
2019-05-09T06:15:29.006Z,99667.69
2019-05-09T06:17:58.559Z,99672.28
2019-05-09T06:20:28.290Z,99664.27
2019-05-09T06:22:58.406Z,99665.90
2019-05-09T06:25:30.536Z,99667.61
2019-05-09T06:27:59.051Z,99669.53
2019-05-09T06:30:32.116Z,99673.87
2019-05-09T06:33:04.945Z,99674.17
2019-05-09T06:35:32.864Z,99680.41
2019-05-09T06:38:02.590Z,99672.63
2019-05-09T06:40:32.022Z,99681.72
2019-05-09T06:43:03.160Z,99684.89
2019-05-09T06:45:34.295Z,99686.67
2019-05-09T06:48:03.889Z,99692.06
2019-05-09T06:50:34.821Z,99690.84
2019-05-09T06:53:04.386Z,99699.33
2019-05-09T06:55:35.370Z,99695.06
2019-05-09T06:58:23.014Z,99694.81
2019-05-09T07:00:58.539Z,99697.24
2019-05-09T07:03:30.170Z,99694.45
2019-05-09T07:06:01.262Z,99692.66
2019-05-09T07:08:47.844Z,99694.48
2019-05-09T07:11:19.167Z,99700.17
2019-05-09T07:13:48.735Z,99685.48
2019-05-09T07:16:18.824Z,99683.22
2019-05-09T07:18:48.587Z,99692.72
2019-05-09T07:21:19.108Z,99694.85
2019-05-09T07:23:48.552Z,99688.11
2019-05-09T07:26:23.601Z,99690.91
2019-05-09T07:28:52.991Z,99693.44
2019-05-09T07:31:28.530Z,99691.70
2019-05-09T07:33:59.613Z,99693.34
2019-05-09T07:36:29.735Z,99688.10
2019-05-09T07:38:59.303Z,99688.10
2019-05-09T07:41:29.874Z,99690.84
2019-05-09T07:43:59.350Z,99690.84
2019-05-09T07:46:30.355Z,99691.87
2019-05-09T07:49:00.365Z,99689.63
2019-05-09T07:51:29.869Z,99689.20
2019-05-09T07:53:59.410Z,99689.71
2019-05-09T07:56:29.311Z,99684.22
2019-05-09T07:58:58.756Z,99685.45
2019-05-09T08:01:28.348Z,99688.51
2019-05-09T08:03:58.569Z,99684.77
2019-05-09T08:06:28.970Z,99692.74
2019-05-09T08:08:58.575Z,99692.07
2019-05-09T08:11:29.486Z,99691.39
2019-05-09T08:13:59.054Z,99695.87
2019-05-09T08:16:28.472Z,99687.82
2019-05-09T08:18:58.063Z,99692.02
2019-05-09T08:21:27.924Z,99696.91
2019-05-09T08:23:58.030Z,99685.81
2019-05-09T08:26:29.995Z,99692.17
2019-05-09T08:28:59.030Z,99697.38
2019-05-09T08:31:28.529Z,99685.12
2019-05-09T08:33:59.252Z,99694.96
2019-05-09T08:36:29.094Z,99687.64
2019-05-09T08:39:00.161Z,99686.59
2019-05-09T08:41:31.226Z,99687.50
2019-05-09T08:44:00.700Z,99698.70
2019-05-09T08:46:31.657Z,99702.73
2019-05-09T08:49:01.051Z,99706.14
2019-05-09T08:51:47.241Z,99707.83
2019-05-09T08:54:09.137Z,99699.41
2019-05-09T08:56:38.831Z,99703.20
2019-05-09T08:59:08.754Z,99703.47
2019-05-09T09:02:04.911Z,99699.72
2019-05-09T09:04:11.092Z,99700.69
2019-05-09T09:06:40.705Z,99703.78
2019-05-09T09:09:10.099Z,99706.86
2019-05-09T09:11:39.509Z,99708.68
2019-05-09T09:14:08.907Z,99710.15
2019-05-09T09:16:41.509Z,99710.96
2019-05-09T09:19:09.468Z,99709.05
2019-05-09T09:21:39.013Z,99711.44
2019-05-09T09:24:08.863Z,99703.78
2019-05-09T09:26:38.476Z,99705.64
2019-05-09T09:29:08.599Z,99706.52
2019-05-09T09:31:38.167Z,99713.20
2019-05-09T09:34:08.046Z,99719.85
2019-05-09T09:36:39.056Z,99713.45
2019-05-09T09:39:08.754Z,99721.88
2019-05-09T09:41:38.896Z,99718.63
2019-05-09T09:44:08.993Z,99719.81
2019-05-09T09:46:38.687Z,99718.59
2019-05-09T09:49:08.562Z,99709.64
2019-05-09T09:51:38.467Z,99716.19
2019-05-09T09:54:08.731Z,99712.95
2019-05-09T09:56:38.914Z,99708.77
2019-05-09T09:59:28.396Z,99706.95
2019-05-09T10:02:10.265Z,99705.16
2019-05-09T10:04:38.339Z,99704.66
2019-05-09T10:07:08.929Z,99709.53
2019-05-09T10:09:38.513Z,99703.27
2019-05-09T10:12:09.043Z,99711.70
2019-05-09T10:14:46.208Z,99710.66
2019-05-09T10:17:33.786Z,99710.93
2019-05-09T10:20:05.609Z,99712.81
2019-05-09T10:22:35.053Z,99708.87
2019-05-09T10:25:07.846Z,99707.53
2019-05-09T10:27:38.738Z,99708.56
2019-05-09T10:30:09.647Z,99699.57
2019-05-09T10:32:39.209Z,99709.81
2019-05-09T10:35:08.916Z,99705.23
2019-05-09T10:37:39.451Z,99707.91
2019-05-09T10:40:10.644Z,99703.97
2019-05-09T10:42:41.715Z,99702.59
2019-05-09T10:45:31.195Z,99698.17
2019-05-09T10:48:00.696Z,99704.90
2019-05-09T10:50:34.025Z,99703.39
2019-05-09T10:53:01.346Z,99707.62
2019-05-09T10:55:30.739Z,99702.55
2019-05-09T10:58:02.225Z,99706.45
2019-05-09T11:00:31.555Z,99704.07
2019-05-09T11:03:01.037Z,99717.68
2019-05-09T11:05:30.443Z,99708.05
2019-05-09T11:08:01.580Z,99709.59
2019-05-09T11:10:32.848Z,99715.18
2019-05-09T11:13:02.117Z,99711.00
2019-05-09T11:15:34.352Z,99707.31
2019-05-09T11:18:03.858Z,99714.67
2019-05-09T11:20:33.495Z,99726.68
2019-05-09T11:23:02.921Z,99729.97
2019-05-09T11:25:32.620Z,99714.66
2019-05-09T11:28:10.878Z,99726.50
2019-05-09T11:30:33.500Z,99719.81
2019-05-09T11:33:02.947Z,99718.59
2019-05-09T11:35:32.342Z,99721.02
2019-05-09T11:38:01.776Z,99718.30
2019-05-09T11:40:31.340Z,99732.80
2019-05-09T11:43:00.850Z,99732.42
2019-05-09T11:45:30.304Z,99726.42
2019-05-09T11:47:59.809Z,99729.68
2019-05-09T11:50:29.202Z,99738.09
2019-05-09T11:52:59.973Z,99748.75
2019-05-09T11:55:35.670Z,99739.94
2019-05-09T11:58:00.735Z,99740.86
2019-05-09T12:00:30.137Z,99738.86
2019-05-09T12:02:59.633Z,99734.76
2019-05-09T12:05:29.047Z,99737.00
2019-05-09T12:07:58.511Z,99745.50
2019-05-09T12:10:28.539Z,99741.36
2019-05-09T12:12:58.498Z,99750.34
2019-05-09T12:15:29.050Z,99746.25
2019-05-09T12:18:04.043Z,99745.77
2019-05-09T12:20:29.982Z,99749.42
2019-05-09T12:22:59.425Z,99748.50
2019-05-09T12:25:28.825Z,99744.89
2019-05-09T12:27:58.671Z,99747.38
2019-05-09T12:30:29.808Z,99745.36
2019-05-09T12:32:59.286Z,99755.81
2019-05-09T12:35:28.720Z,99736.23
2019-05-09T12:37:58.175Z,99749.84
2019-05-09T12:40:27.682Z,99752.68
2019-05-09T12:42:57.118Z,99764.22
2019-05-09T12:45:26.520Z,99762.72
2019-05-09T12:48:07.628Z,99766.40
2019-05-09T12:50:29.441Z,99761.88
2019-05-09T12:52:58.369Z,99763.63
2019-05-09T12:55:27.862Z,99776.19
2019-05-09T12:57:59.519Z,99775.16
2019-05-09T13:00:28.532Z,99778.34
2019-05-09T13:02:59.475Z,99778.83
2019-05-09T13:05:29.106Z,99777.86
2019-05-09T13:07:58.632Z,99772.56
2019-05-09T13:10:28.419Z,99774.97
2019-05-09T13:12:58.866Z,99779.22
2019-05-09T13:15:31.118Z,99784.09
2019-05-09T13:18:01.113Z,99784.34
2019-05-09T13:20:30.508Z,99772.37
2019-05-09T13:22:59.969Z,99782.12
2019-05-09T13:25:30.268Z,99787.67
2019-05-09T13:27:59.945Z,99787.16
2019-05-09T13:30:29.347Z,99784.60
2019-05-09T13:32:58.758Z,99786.05
2019-05-09T13:35:29.130Z,99785.73
2019-05-09T13:37:59.683Z,99784.34
2019-05-09T13:40:29.422Z,99786.81
2019-05-09T13:43:00.666Z,99788.26
2019-05-09T13:45:30.057Z,99792.37
2019-05-09T13:47:59.548Z,99793.09
2019-05-09T13:50:28.980Z,99801.38
2019-05-09T13:52:58.530Z,99807.36
2019-05-09T13:55:27.956Z,99807.58
2019-05-09T13:57:59.276Z,99818.13
2019-05-09T14:00:28.809Z,99824.44
2019-05-09T14:02:58.544Z,99828.95
2019-05-09T14:05:29.102Z,99832.45
2019-05-09T14:08:03.280Z,99841.61
2019-05-09T14:10:31.659Z,99841.61
2019-05-09T14:13:09.823Z,99838.13
2019-05-09T14:15:32.346Z,99841.50
2019-05-09T14:18:01.764Z,99842.94
2019-05-09T14:20:31.157Z,99842.94
2019-05-09T14:23:00.580Z,99839.17
2019-05-09T14:25:30.056Z,99834.86
2019-05-09T14:27:59.873Z,99830.17
2019-05-09T14:30:29.302Z,99834.14
2019-05-09T14:33:00.309Z,99843.84
2019-05-09T14:35:30.058Z,99835.27
2019-05-09T14:37:59.484Z,99839.48
2019-05-09T14:40:28.918Z,99842.20
2019-05-09T14:43:00.503Z,99835.66
2019-05-09T14:45:29.932Z,99838.67
2019-05-09T14:47:59.419Z,99848.85
2019-05-09T14:50:29.414Z,99845.45
2019-05-09T14:52:58.845Z,99846.02
2019-05-09T14:55:28.697Z,99841.27
2019-05-09T14:57:58.182Z,99838.63
2019-05-09T15:00:28.815Z,99843.76
2019-05-09T15:02:59.302Z,99847.53
2019-05-09T15:05:28.771Z,99838.41
2019-05-09T15:08:03.052Z,99833.28
2019-05-09T15:10:32.734Z,99831.19
2019-05-09T15:13:02.176Z,99832.07
2019-05-09T15:15:32.765Z,99835.52
2019-05-09T15:18:02.486Z,99842.84
2019-05-09T15:20:31.905Z,99850.20
2019-05-09T15:23:01.341Z,99844.16
2019-05-09T15:25:30.747Z,99845.62
2019-05-09T15:28:00.348Z,99850.98
2019-05-09T15:30:29.977Z,99855.26
2019-05-09T15:32:59.760Z,99856.67
2019-05-09T15:35:29.171Z,99859.30
2019-05-09T15:37:59.221Z,99865.35
2019-05-09T15:40:28.728Z,99863.34
2019-05-09T15:42:58.975Z,99860.42
2019-05-09T15:45:30.092Z,99866.70
2019-05-09T15:47:59.520Z,99870.62
2019-05-09T15:50:28.921Z,99871.25
2019-05-09T15:52:58.518Z,99876.82
2019-05-09T15:55:28.461Z,99872.41
2019-05-09T15:57:57.960Z,99871.89
2019-05-09T16:00:28.397Z,99874.20
2019-05-09T16:02:59.077Z,99881.82
2019-05-09T16:05:33.177Z,99883.69
2019-05-09T16:08:02.604Z,99889.64
2019-05-09T16:10:32.043Z,99887.59
2019-05-09T16:13:01.470Z,99881.33
2019-05-09T16:15:30.974Z,99869.41
2019-05-09T16:18:00.787Z,99888.80
2019-05-09T16:20:37.410Z,99885.13
2019-05-09T16:23:01.561Z,99891.88
2019-05-09T16:25:31.189Z,99894.89
2019-05-09T16:28:00.823Z,99920.99
2019-05-09T16:30:30.314Z,99885.34
2019-05-09T16:32:59.883Z,99901.52
2019-05-09T16:35:29.288Z,99907.30
2019-05-09T16:38:06.351Z,99910.23
2019-05-09T16:40:30.097Z,99910.23
2019-05-09T16:42:59.522Z,99929.48
2019-05-09T16:45:28.928Z,99930.98
2019-05-09T16:47:58.422Z,99931.56
2019-05-09T16:50:27.983Z,99925.17
2019-05-09T16:52:58.457Z,99931.55
2019-05-09T16:55:33.745Z,99929.50
2019-05-09T16:58:03.198Z,99939.23
2019-05-09T17:00:38.061Z,99930.99
2019-05-09T17:03:08.128Z,99934.28
2019-05-09T17:05:37.991Z,99933.24
2019-05-09T17:08:08.178Z,99941.38
2019-05-09T17:10:37.850Z,99939.16
2019-05-09T17:13:07.932Z,99942.64
2019-05-09T17:15:38.924Z,99948.34
2019-05-09T17:18:10.020Z,99946.15
2019-05-09T17:20:44.224Z,99957.25
2019-05-09T17:23:15.453Z,99955.18
2019-05-09T17:25:48.258Z,99958.30
2019-05-09T17:28:18.013Z,99957.08
2019-05-09T17:30:49.275Z,99957.08
2019-05-09T17:33:19.052Z,99958.86
2019-05-09T17:35:48.616Z,99970.73
2019-05-09T17:38:18.317Z,99972.52
2019-05-09T17:40:48.618Z,99971.68
2019-05-09T17:43:23.397Z,99976.05
2019-05-09T17:45:52.911Z,99976.53
2019-05-09T17:48:22.345Z,99986.11
2019-05-09T17:50:52.055Z,99984.77
2019-05-09T17:53:21.628Z,99983.42
2019-05-09T17:55:51.105Z,99989.92
2019-05-09T17:58:29.865Z,99986.92
2019-05-09T18:00:52.177Z,99996.95
2019-05-09T18:03:21.629Z,100003.52
2019-05-09T18:05:51.164Z,100001.30
2019-05-09T18:08:20.641Z,99994.83
2019-05-09T18:10:50.327Z,99996.69
2019-05-09T18:13:23.883Z,99999.87
2019-05-09T18:15:51.404Z,100002.94
2019-05-09T18:18:20.851Z,100003.81
2019-05-09T18:20:50.690Z,100006.30
2019-05-09T18:23:21.880Z,100003.31
2019-05-09T18:25:51.306Z,99997.41
2019-05-09T18:28:21.029Z,100012.70
2019-05-09T18:30:50.505Z,100023.22
2019-05-09T18:33:21.666Z,100027.97
2019-05-09T18:35:51.074Z,100028.19
2019-05-09T18:38:23.571Z,100037.73
2019-05-09T18:40:53.076Z,100048.16
2019-05-09T18:43:22.532Z,100052.53
2019-05-09T18:45:51.943Z,100049.05
2019-05-09T18:48:21.445Z,100053.92
2019-05-09T18:50:50.978Z,100055.17
2019-05-09T18:53:21.228Z,100057.30
2019-05-09T18:55:50.643Z,100065.13
2019-05-09T18:58:20.183Z,100062.23
2019-05-09T19:00:50.079Z,100066.01
2019-05-09T19:03:19.600Z,100072.95
2019-05-09T19:05:49.054Z,100075.95
2019-05-09T19:08:18.529Z,100082.45
2019-05-09T19:10:51.970Z,100080.34
2019-05-09T19:13:20.713Z,100080.86
2019-05-09T19:15:58.317Z,100079.30
2019-05-09T19:18:30.713Z,100091.84
2019-05-09T19:21:01.772Z,100094.95
2019-05-09T19:23:31.504Z,100096.58
2019-05-09T19:26:02.555Z,100100.56
2019-05-09T19:28:32.085Z,100101.11
2019-05-09T19:31:01.569Z,100107.29
2019-05-09T19:33:31.066Z,100109.16
2019-05-09T19:36:00.648Z,100112.38
2019-05-09T19:38:30.095Z,100117.31
2019-05-09T19:40:59.511Z,100122.30
2019-05-09T19:43:29.034Z,100123.27
2019-05-09T19:45:58.443Z,100120.23
2019-05-09T19:48:28.207Z,100130.38
2019-05-09T19:50:57.840Z,100136.59
2019-05-09T19:53:27.278Z,100137.30
2019-05-09T19:55:56.695Z,100141.03
2019-05-09T19:58:26.251Z,100140.73
2019-05-09T20:00:55.707Z,100141.69
2019-05-09T20:03:24.296Z,100146.74
2019-05-09T20:05:52.936Z,100147.06
2019-05-09T20:08:21.736Z,100145.47
2019-05-09T20:11:10.444Z,100153.38
2019-05-09T20:14:00.166Z,100146.11
2019-05-09T20:16:38.149Z,100160.95
2019-05-09T20:19:07.114Z,100161.59
2019-05-09T20:21:37.136Z,100167.03
2019-05-09T20:24:09.483Z,100163.97
2019-05-09T20:26:40.217Z,100167.67
2019-05-09T20:29:09.790Z,100164.78
2019-05-09T20:31:39.234Z,100168.52
2019-05-09T20:34:10.809Z,100169.59
2019-05-09T20:36:42.373Z,100171.03
2019-05-09T20:39:14.524Z,100176.95
2019-05-09T20:41:46.320Z,100181.24
2019-05-09T20:44:18.173Z,100176.02
2019-05-09T20:46:49.091Z,100181.64
2019-05-09T20:49:18.790Z,100176.64
2019-05-09T20:51:48.616Z,100184.66
2019-05-09T20:54:21.773Z,100189.98
2019-05-09T20:56:53.628Z,100186.43
2019-05-09T20:59:25.034Z,100192.75
2019-05-09T21:01:54.816Z,100191.29
2019-05-09T21:04:24.463Z,100192.83
2019-05-09T21:06:54.245Z,100191.29
2019-05-09T21:09:24.208Z,100191.52
2019-05-09T21:11:53.977Z,100197.95
2019-05-09T21:14:23.845Z,100195.00
2019-05-09T21:16:53.463Z,100192.11
2019-05-09T21:19:23.071Z,100203.72
2019-05-09T21:21:52.989Z,100209.20
2019-05-09T21:24:22.769Z,100205.37
2019-05-09T21:26:52.388Z,100206.08
2019-05-09T21:29:22.028Z,100206.71
2019-05-09T21:31:51.611Z,100205.11
2019-05-09T21:34:21.335Z,100206.31
2019-05-09T21:36:50.784Z,100206.48
2019-05-09T21:39:21.832Z,100210.23
2019-05-09T21:41:51.302Z,100211.53
2019-05-09T21:44:20.709Z,100215.77
2019-05-09T21:46:53.197Z,100217.38
2019-05-09T21:49:22.598Z,100224.95
2019-05-09T21:51:52.596Z,100227.22
2019-05-09T21:54:22.019Z,100234.47
2019-05-09T21:56:51.447Z,100231.26
2019-05-09T21:59:20.851Z,100240.14
2019-05-09T22:01:50.444Z,100242.39
2019-05-09T22:04:19.852Z,100250.55
2019-05-09T22:06:51.530Z,100251.45
2019-05-09T22:09:21.154Z,100249.95
2019-05-09T22:11:50.777Z,100248.61
2019-05-09T22:14:20.622Z,100256.30
2019-05-09T22:16:50.887Z,100266.97
2019-05-09T22:19:20.416Z,100265.88
2019-05-09T22:21:49.889Z,100261.72
2019-05-09T22:24:19.405Z,100262.02
2019-05-09T22:26:48.810Z,100262.22
2019-05-09T22:29:18.338Z,100263.47
2019-05-09T22:31:48.717Z,100274.34
2019-05-09T22:34:18.156Z,100272.86
2019-05-09T22:36:47.663Z,100276.44
2019-05-09T22:39:17.092Z,100269.88
2019-05-09T22:41:46.600Z,100272.16
2019-05-09T22:44:16.166Z,100267.20
2019-05-09T22:46:45.606Z,100268.48
2019-05-09T22:49:15.055Z,100273.45
2019-05-09T22:51:44.455Z,100272.91
2019-05-09T22:54:13.860Z,100286.37
2019-05-09T22:56:43.371Z,100279.56
2019-05-09T22:59:12.788Z,100283.88
2019-05-09T23:01:43.375Z,100275.68
2019-05-09T23:04:12.799Z,100280.16
2019-05-09T23:06:42.202Z,100282.05
2019-05-09T23:09:12.810Z,100286.20
2019-05-09T23:11:42.246Z,100286.51
2019-05-09T23:14:11.649Z,100284.27
2019-05-09T23:16:41.620Z,100281.36
2019-05-09T23:19:11.252Z,100277.44
2019-05-09T23:21:40.646Z,100279.28
2019-05-09T23:24:27.393Z,100275.53
2019-05-09T23:26:45.774Z,100276.44
2019-05-09T23:29:15.246Z,100278.41
2019-05-09T23:31:55.050Z,100278.63
2019-05-09T23:34:24.689Z,100275.30
2019-05-09T23:36:54.289Z,100276.20
2019-05-09T23:39:34.588Z,100282.70
2019-05-09T23:42:04.285Z,100277.36
2019-05-09T23:44:33.659Z,100281.55
2019-05-09T23:47:03.117Z,100285.47
2019-05-09T23:49:32.610Z,100279.57
2019-05-09T23:52:02.011Z,100279.17
2019-05-09T23:54:49.133Z,100280.91
2019-05-09T23:57:36.712Z,100279.89
